sensor_id;sensor_type;location;lat;lon;timestamp;pressure;altitude;pressure_sealevel;temperature;humidity
51460;BME280;37534;39.772;2.718;2023-02-22T00:01:13;101486.28;;;9.01;100.00
51460;BME280;37534;39.772;2.718;2023-02-22T00:03:57;101487.06;;;9.12;100.00
51460;BME280;37534;39.772;2.718;2023-02-22T00:06:23;101487.81;;;9.26;100.00
51460;BME280;37534;39.772;2.718;2023-02-22T00:08:49;101499.78;;;9.30;100.00
51460;BME280;37534;39.772;2.718;2023-02-22T00:11:17;101486.88;;;9.32;100.00
51460;BME280;37534;39.772;2.718;2023-02-22T00:13:43;101481.09;;;9.08;100.00
51460;BME280;37534;39.772;2.718;2023-02-22T00:16:17;101491.47;;;8.98;100.00
51460;BME280;37534;39.772;2.718;2023-02-22T00:18:43;101494.94;;;8.90;100.00
51460;BME280;37534;39.772;2.718;2023-02-22T00:21:11;101481.19;;;8.91;100.00
51460;BME280;37534;39.772;2.718;2023-02-22T00:23:40;101472.63;;;8.89;100.00
51460;BME280;37534;39.772;2.718;2023-02-22T00:26:07;101485.31;;;9.16;100.00
51460;BME280;37534;39.772;2.718;2023-02-22T00:28:36;101474.13;;;9.17;100.00
51460;BME280;37534;39.772;2.718;2023-02-22T00:31:02;101470.69;;;9.19;100.00
51460;BME280;37534;39.772;2.718;2023-02-22T00:33:31;101487.00;;;9.18;100.00
51460;BME280;37534;39.772;2.718;2023-02-22T00:35:57;101484.50;;;9.06;100.00
51460;BME280;37534;39.772;2.718;2023-02-22T00:38:23;101488.91;;;8.94;100.00
51460;BME280;37534;39.772;2.718;2023-02-22T00:40:49;101488.94;;;8.88;100.00
51460;BME280;37534;39.772;2.718;2023-02-22T00:43:14;101491.44;;;9.01;100.00
51460;BME280;37534;39.772;2.718;2023-02-22T00:45:40;101494.88;;;9.00;100.00
51460;BME280;37534;39.772;2.718;2023-02-22T00:48:07;101501.75;;;8.98;100.00
51460;BME280;37534;39.772;2.718;2023-02-22T00:50:34;101499.03;;;9.14;100.00
51460;BME280;37534;39.772;2.718;2023-02-22T00:53:01;101512.78;;;9.15;100.00
51460;BME280;37534;39.772;2.718;2023-02-22T00:55:33;101516.22;;;9.14;100.00
51460;BME280;37534;39.772;2.718;2023-02-22T00:58:00;101513.63;;;9.17;100.00
51460;BME280;37534;39.772;2.718;2023-02-22T01:00:31;101519.63;;;9.19;100.00
51460;BME280;37534;39.772;2.718;2023-02-22T01:02:57;101522.19;;;9.16;100.00
51460;BME280;37534;39.772;2.718;2023-02-22T01:05:28;101517.03;;;9.19;100.00
51460;BME280;37534;39.772;2.718;2023-02-22T01:07:55;101510.97;;;9.25;100.00
51460;BME280;37534;39.772;2.718;2023-02-22T01:10:23;101510.22;;;9.15;100.00
51460;BME280;37534;39.772;2.718;2023-02-22T01:12:49;101522.25;;;9.11;100.00
51460;BME280;37534;39.772;2.718;2023-02-22T01:15:18;101520.53;;;9.09;100.00
51460;BME280;37534;39.772;2.718;2023-02-22T01:17:51;101513.72;;;9.05;100.00
51460;BME280;37534;39.772;2.718;2023-02-22T01:20:19;101497.44;;;8.98;100.00
51460;BME280;37534;39.772;2.718;2023-02-22T01:22:47;101501.75;;;9.01;100.00
51460;BME280;37534;39.772;2.718;2023-02-22T01:25:17;101485.56;;;8.82;100.00
51460;BME280;37534;39.772;2.718;2023-02-22T01:27:43;101502.66;;;8.89;100.00
51460;BME280;37534;39.772;2.718;2023-02-22T01:30:10;101491.53;;;8.88;100.00
51460;BME280;37534;39.772;2.718;2023-02-22T01:32:38;101490.63;;;8.91;100.00
51460;BME280;37534;39.772;2.718;2023-02-22T01:35:05;101488.91;;;8.90;100.00
51460;BME280;37534;39.772;2.718;2023-02-22T01:37:33;101473.50;;;8.87;100.00
51460;BME280;37534;39.772;2.718;2023-02-22T01:40:00;101483.66;;;9.10;100.00
51460;BME280;37534;39.772;2.718;2023-02-22T01:42:26;101480.19;;;9.11;100.00
51460;BME280;37534;39.772;2.718;2023-02-22T01:48:03;101470.13;;;8.82;100.00
51460;BME280;37534;39.772;2.718;2023-02-22T01:50:33;101463.31;;;8.67;100.00
51460;BME280;37534;39.772;2.718;2023-02-22T01:53:00;101450.50;;;8.61;100.00
51460;BME280;37534;39.772;2.718;2023-02-22T01:55:26;101462.41;;;8.77;100.00
51460;BME280;37534;39.772;2.718;2023-02-22T01:57:53;101459.09;;;8.60;100.00
51460;BME280;37534;39.772;2.718;2023-02-22T02:00:19;101448.88;;;8.47;100.00
51460;BME280;37534;39.772;2.718;2023-02-22T02:02:55;101445.47;;;8.39;100.00
51460;BME280;37534;39.772;2.718;2023-02-22T02:05:27;101436.91;;;8.34;100.00
51460;BME280;37534;39.772;2.718;2023-02-22T02:07:57;101430.94;;;8.27;100.00
51460;BME280;37534;39.772;2.718;2023-02-22T02:10:23;101444.59;;;8.40;100.00
51460;BME280;37534;39.772;2.718;2023-02-22T02:12:50;101438.56;;;8.49;100.00
51460;BME280;37534;39.772;2.718;2023-02-22T02:15:30;101442.84;;;8.53;100.00
51460;BME280;37534;39.772;2.718;2023-02-22T02:18:04;101440.31;;;8.44;100.00
51460;BME280;37534;39.772;2.718;2023-02-22T02:23:37;101433.63;;;8.04;100.00
51460;BME280;37534;39.772;2.718;2023-02-22T02:42:43;101398.56;;;7.88;100.00
51460;BME280;37534;39.772;2.718;2023-02-22T02:45:20;101384.03;;;7.77;100.00
51460;BME280;37534;39.772;2.718;2023-02-22T02:47:52;101374.63;;;7.78;100.00
51460;BME280;37534;39.772;2.718;2023-02-22T02:50:27;101377.97;;;7.98;100.00
51460;BME280;37534;39.772;2.718;2023-02-22T02:52:58;101372.03;;;7.78;100.00
51460;BME280;37534;39.772;2.718;2023-02-22T02:55:28;101370.34;;;7.75;100.00
51460;BME280;37534;39.772;2.718;2023-02-22T02:57:54;101365.16;;;7.85;100.00
51460;BME280;37534;39.772;2.718;2023-02-22T03:00:23;101360.03;;;7.81;100.00
51460;BME280;37534;39.772;2.718;2023-02-22T03:09:18;101369.50;;;7.75;100.00
51460;BME280;37534;39.772;2.718;2023-02-22T03:11:50;101366.94;;;7.69;100.00
51460;BME280;37534;39.772;2.718;2023-02-22T03:14:41;101362.69;;;7.66;100.00
51460;BME280;37534;39.772;2.718;2023-02-22T03:17:46;101374.66;;;7.70;100.00
51460;BME280;37534;39.772;2.718;2023-02-22T03:25:59;101372.13;;;7.63;100.00
51460;BME280;37534;39.772;2.718;2023-02-22T03:28:28;101378.13;;;7.51;100.00
51460;BME280;37534;39.772;2.718;2023-02-22T03:31:27;101379.81;;;7.64;100.00
51460;BME280;37534;39.772;2.718;2023-02-22T03:33:58;101385.88;;;7.45;100.00
51460;BME280;37534;39.772;2.718;2023-02-22T03:36:27;101373.88;;;7.39;100.00
51460;BME280;37534;39.772;2.718;2023-02-22T03:38:57;101371.31;;;7.39;100.00
51460;BME280;37534;39.772;2.718;2023-02-22T03:41:25;101367.91;;;7.46;100.00
51460;BME280;37534;39.772;2.718;2023-02-22T03:43:56;101365.25;;;7.69;100.00
51460;BME280;37534;39.772;2.718;2023-02-22T03:46:26;101356.66;;;7.76;100.00
51460;BME280;37534;39.772;2.718;2023-02-22T03:49:11;101360.03;;;7.85;100.00
51460;BME280;37534;39.772;2.718;2023-02-22T03:51:38;101354.06;;;7.84;100.00
51460;BME280;37534;39.772;2.718;2023-02-22T03:54:05;101336.16;;;7.55;100.00
51460;BME280;37534;39.772;2.718;2023-02-22T03:56:42;101351.56;;;7.55;100.00
51460;BME280;37534;39.772;2.718;2023-02-22T03:59:12;101345.63;;;7.50;100.00
51460;BME280;37534;39.772;2.718;2023-02-22T04:01:38;101343.00;;;7.62;100.00
51460;BME280;37534;39.772;2.718;2023-02-22T04:04:03;101348.13;;;7.65;100.00
51460;BME280;37534;39.772;2.718;2023-02-22T04:06:29;101344.75;;;7.54;100.00
51460;BME280;37534;39.772;2.718;2023-02-22T04:08:55;101328.50;;;7.42;100.00
51460;BME280;37534;39.772;2.718;2023-02-22T04:11:21;101327.59;;;7.62;100.00
51460;BME280;37534;39.772;2.718;2023-02-22T04:13:47;101320.81;;;7.46;100.00
51460;BME280;37534;39.772;2.718;2023-02-22T04:16:13;101328.50;;;7.44;100.00
51460;BME280;37534;39.772;2.718;2023-02-22T04:18:38;101321.69;;;7.40;100.00
51460;BME280;37534;39.772;2.718;2023-02-22T04:21:04;101331.06;;;7.46;100.00
51460;BME280;37534;39.772;2.718;2023-02-22T04:23:30;101335.38;;;7.47;100.00
51460;BME280;37534;39.772;2.718;2023-02-22T04:25:55;101331.94;;;7.43;100.00
51460;BME280;37534;39.772;2.718;2023-02-22T04:28:21;101333.63;;;7.44;100.00
51460;BME280;37534;39.772;2.718;2023-02-22T04:30:47;101335.34;;;7.50;100.00
51460;BME280;37534;39.772;2.718;2023-02-22T04:33:12;101324.25;;;7.45;100.00
51460;BME280;37534;39.772;2.718;2023-02-22T04:35:38;101342.19;;;7.52;100.00
51460;BME280;37534;39.772;2.718;2023-02-22T04:38:04;101338.72;;;7.63;100.00
51460;BME280;37534;39.772;2.718;2023-02-22T04:40:30;101342.13;;;7.68;100.00
51460;BME280;37534;39.772;2.718;2023-02-22T04:42:56;101344.75;;;7.55;100.00
51460;BME280;37534;39.772;2.718;2023-02-22T04:45:21;101353.34;;;7.42;100.00
51460;BME280;37534;39.772;2.718;2023-02-22T04:47:47;101352.53;;;7.34;100.00
51460;BME280;37534;39.772;2.718;2023-02-22T04:50:13;101349.09;;;7.30;100.00
51460;BME280;37534;39.772;2.718;2023-02-22T04:52:40;101350.81;;;7.27;100.00
51460;BME280;37534;39.772;2.718;2023-02-22T04:55:06;101339.72;;;7.17;100.00
51460;BME280;37534;39.772;2.718;2023-02-22T04:57:31;101356.78;;;7.36;100.00
51460;BME280;37534;39.772;2.718;2023-02-22T04:59:57;101351.59;;;7.52;100.00
51460;BME280;37534;39.772;2.718;2023-02-22T05:02:23;101355.88;;;7.53;100.00
51460;BME280;37534;39.772;2.718;2023-02-22T05:04:49;101353.34;;;7.47;100.00
51460;BME280;37534;39.772;2.718;2023-02-22T05:07:15;101356.75;;;7.42;100.00
51460;BME280;37534;39.772;2.718;2023-02-22T05:09:41;101348.19;;;7.43;100.00
51460;BME280;37534;39.772;2.718;2023-02-22T05:12:06;101343.06;;;7.47;100.00
51460;BME280;37534;39.772;2.718;2023-02-22T05:14:32;101346.53;;;7.30;100.00
51460;BME280;37534;39.772;2.718;2023-02-22T05:16:58;101343.13;;;7.25;100.00
51460;BME280;37534;39.772;2.718;2023-02-22T05:19:23;101327.75;;;7.07;100.00
51460;BME280;37534;39.772;2.718;2023-02-22T05:21:49;101334.59;;;7.04;100.00
51460;BME280;37534;39.772;2.718;2023-02-22T05:24:15;101335.44;;;7.05;100.00
51460;BME280;37534;39.772;2.718;2023-02-22T05:26:44;101328.63;;;7.04;100.00
51460;BME280;37534;39.772;2.718;2023-02-22T05:29:11;101322.59;;;7.05;100.00
51460;BME280;37534;39.772;2.718;2023-02-22T05:31:37;101318.34;;;7.02;100.00
51460;BME280;37534;39.772;2.718;2023-02-22T05:34:02;101323.47;;;6.99;100.00
51460;BME280;37534;39.772;2.718;2023-02-22T05:36:28;101312.38;;;6.90;100.00
51460;BME280;37534;39.772;2.718;2023-02-22T05:38:55;101312.38;;;6.88;100.00
51460;BME280;37534;39.772;2.718;2023-02-22T05:41:20;101312.38;;;6.97;100.00
51460;BME280;37534;39.772;2.718;2023-02-22T05:43:46;101314.06;;;7.04;100.00
51460;BME280;37534;39.772;2.718;2023-02-22T05:46:13;101320.03;;;7.25;100.00
51460;BME280;37534;39.772;2.718;2023-02-22T05:48:39;101314.03;;;7.21;100.00
51460;BME280;37534;39.772;2.718;2023-02-22T05:51:05;101332.03;;;7.08;100.00
51460;BME280;37534;39.772;2.718;2023-02-22T05:53:31;101326.06;;;7.06;100.00
51460;BME280;37534;39.772;2.718;2023-02-22T05:55:58;101320.91;;;6.87;100.00
51460;BME280;37534;39.772;2.718;2023-02-22T05:58:23;101330.34;;;6.91;100.00
51460;BME280;37534;39.772;2.718;2023-02-22T06:00:49;101338.03;;;6.79;100.00
51460;BME280;37534;39.772;2.718;2023-02-22T06:03:14;101349.16;;;6.70;100.00
51460;BME280;37534;39.772;2.718;2023-02-22T06:05:40;101332.91;;;6.60;100.00
51460;BME280;37534;39.772;2.718;2023-02-22T06:08:07;101336.31;;;6.50;100.00
51460;BME280;37534;39.772;2.718;2023-02-22T06:10:32;101350.00;;;6.52;100.00
51460;BME280;37534;39.772;2.718;2023-02-22T06:12:59;101338.91;;;6.59;100.00
51460;BME280;37534;39.772;2.718;2023-02-22T06:15:26;101353.44;;;6.88;100.00
51460;BME280;37534;39.772;2.718;2023-02-22T06:17:53;101350.00;;;6.89;100.00
51460;BME280;37534;39.772;2.718;2023-02-22T06:20:21;101367.09;;;6.90;100.00
51460;BME280;37534;39.772;2.718;2023-02-22T06:22:48;101371.38;;;6.97;100.00
51460;BME280;37534;39.772;2.718;2023-02-22T06:25:16;101365.41;;;6.98;100.00
51460;BME280;37534;39.772;2.718;2023-02-22T06:27:42;101371.38;;;6.94;100.00
51460;BME280;37534;39.772;2.718;2023-02-22T06:30:10;101370.50;;;6.89;100.00
51460;BME280;37534;39.772;2.718;2023-02-22T06:32:36;101375.63;;;6.89;100.00
51460;BME280;37534;39.772;2.718;2023-02-22T06:35:02;101378.22;;;6.75;100.00
51460;BME280;37534;39.772;2.718;2023-02-22T06:37:28;101387.63;;;6.72;100.00
51460;BME280;37534;39.772;2.718;2023-02-22T06:39:53;101380.75;;;6.68;100.00
51460;BME280;37534;39.772;2.718;2023-02-22T06:42:19;101392.75;;;6.75;100.00
51460;BME280;37534;39.772;2.718;2023-02-22T06:44:45;101382.47;;;6.62;100.00
51460;BME280;37534;39.772;2.718;2023-02-22T06:47:10;101382.47;;;6.62;100.00
51460;BME280;37534;39.772;2.718;2023-02-22T06:49:36;101379.06;;;6.71;100.00
51460;BME280;37534;39.772;2.718;2023-02-22T06:52:06;101384.19;;;6.85;100.00
51460;BME280;37534;39.772;2.718;2023-02-22T06:54:32;101390.19;;;6.87;100.00
51460;BME280;37534;39.772;2.718;2023-02-22T06:56:58;101392.75;;;6.81;100.00
51460;BME280;37534;39.772;2.718;2023-02-22T06:59:23;101391.03;;;6.74;100.00
51460;BME280;37534;39.772;2.718;2023-02-22T07:01:49;101395.34;;;6.84;100.00
51460;BME280;37534;39.772;2.718;2023-02-22T07:04:15;101386.78;;;6.88;100.00
51460;BME280;37534;39.772;2.718;2023-02-22T07:06:48;101397.88;;;6.99;100.00
51460;BME280;37534;39.772;2.718;2023-02-22T07:09:16;101394.47;;;7.11;100.00
51460;BME280;37534;39.772;2.718;2023-02-22T07:11:42;101404.69;;;7.30;100.00
51460;BME280;37534;39.772;2.718;2023-02-22T07:14:08;101409.81;;;7.50;100.00
51460;BME280;37534;39.772;2.718;2023-02-22T07:16:35;101395.19;;;7.75;100.00
51460;BME280;37534;39.772;2.718;2023-02-22T07:19:00;101413.06;;;8.04;100.00
51460;BME280;37534;39.772;2.718;2023-02-22T07:21:27;101419.88;;;8.17;100.00
51460;BME280;37534;39.772;2.718;2023-02-22T07:23:54;101412.06;;;8.31;100.00
51460;BME280;37534;39.772;2.718;2023-02-22T07:26:22;101427.44;;;8.44;100.00
51460;BME280;37534;39.772;2.718;2023-02-22T07:28:48;101429.13;;;8.54;100.00
51460;BME280;37534;39.772;2.718;2023-02-22T07:31:14;101426.59;;;8.46;100.00
51460;BME280;37534;39.772;2.718;2023-02-22T07:33:40;101438.56;;;8.50;100.00
51460;BME280;37534;39.772;2.718;2023-02-22T07:36:06;101438.56;;;8.53;100.00
51460;BME280;37534;39.772;2.718;2023-02-22T07:38:32;101443.63;;;8.63;100.00
51460;BME280;37534;39.772;2.718;2023-02-22T07:40:58;101444.47;;;8.66;100.00
51460;BME280;37534;39.772;2.718;2023-02-22T07:43:25;101443.63;;;8.66;100.00
51460;BME280;37534;39.772;2.718;2023-02-22T07:45:53;101440.13;;;8.76;100.00
51460;BME280;37534;39.772;2.718;2023-02-22T07:48:21;101439.25;;;8.80;100.00
51460;BME280;37534;39.772;2.718;2023-02-22T07:50:48;101431.53;;;8.77;100.00
51460;BME280;37534;39.772;2.718;2023-02-22T07:53:20;101428.88;;;8.86;100.00
51460;BME280;37534;39.772;2.718;2023-02-22T07:55:46;101440.78;;;9.04;100.00
51460;BME280;37534;39.772;2.718;2023-02-22T07:58:20;101438.88;;;9.26;100.00
51460;BME280;37534;39.772;2.718;2023-02-22T08:00:47;101453.16;;;9.61;100.00
51460;BME280;37534;39.772;2.718;2023-02-22T08:03:14;101456.22;;;9.96;100.00
51460;BME280;37534;39.772;2.718;2023-02-22T08:05:45;101457.53;;;10.29;100.00
51460;BME280;37534;39.772;2.718;2023-02-22T08:08:11;101455.63;;;10.45;100.00
51460;BME280;37534;39.772;2.718;2023-02-22T08:10:38;101470.94;;;10.59;100.00
51460;BME280;37534;39.772;2.718;2023-02-22T08:13:04;101459.97;;;10.43;100.00
51460;BME280;37534;39.772;2.718;2023-02-22T08:15:33;101484.94;;;10.39;100.00
51460;BME280;37534;39.772;2.718;2023-02-22T08:18:00;101477.78;;;10.60;100.00
51460;BME280;37534;39.772;2.718;2023-02-22T08:20:27;101474.19;;;10.70;100.00
51460;BME280;37534;39.772;2.718;2023-02-22T08:22:54;101474.03;;;10.82;100.00
51460;BME280;37534;39.772;2.718;2023-02-22T08:25:23;101477.22;;;11.00;100.00
51460;BME280;37534;39.772;2.718;2023-02-22T08:27:50;101472.75;;;11.10;100.00
51460;BME280;37534;39.772;2.718;2023-02-22T08:30:18;101483.72;;;11.22;100.00
51460;BME280;37534;39.772;2.718;2023-02-22T08:32:45;101482.06;;;11.18;100.00
51460;BME280;37534;39.772;2.718;2023-02-22T08:35:12;101477.72;;;11.22;100.00
51460;BME280;37534;39.772;2.718;2023-02-22T08:37:44;101474.06;;;11.35;100.00
51460;BME280;37534;39.772;2.718;2023-02-22T08:40:11;101480.44;;;11.64;100.00
51460;BME280;37534;39.772;2.718;2023-02-22T08:42:37;101478.56;;;12.19;100.00
51460;BME280;37534;39.772;2.718;2023-02-22T08:45:03;101486.47;;;13.27;100.00
51460;BME280;37534;39.772;2.718;2023-02-22T08:47:29;101476.81;;;14.60;100.00
51460;BME280;37534;39.772;2.718;2023-02-22T08:49:54;101476.16;;;16.09;100.00
51460;BME280;37534;39.772;2.718;2023-02-22T08:52:20;101480.28;;;17.06;96.13
51460;BME280;37534;39.772;2.718;2023-02-22T08:54:46;101473.69;;;17.39;89.73
51460;BME280;37534;39.772;2.718;2023-02-22T08:57:13;101481.53;;;17.39;86.52
51460;BME280;37534;39.772;2.718;2023-02-22T08:59:39;101487.53;;;17.82;79.68
51460;BME280;37534;39.772;2.718;2023-02-22T09:02:05;101465.22;;;17.75;81.20
51460;BME280;37534;39.772;2.718;2023-02-22T09:04:30;101473.53;;;18.03;79.51
51460;BME280;37534;39.772;2.718;2023-02-22T09:06:56;101468.28;;;18.60;78.70
51460;BME280;37534;39.772;2.718;2023-02-22T09:09:22;101480.44;;;19.50;76.34
51460;BME280;37534;39.772;2.718;2023-02-22T09:11:48;101465.94;;;20.11;70.62
51460;BME280;37534;39.772;2.718;2023-02-22T09:14:15;101465.13;;;20.89;69.97
51460;BME280;37534;39.772;2.718;2023-02-22T09:16:44;101468.34;;;20.94;65.14
51460;BME280;37534;39.772;2.718;2023-02-22T09:19:10;101465.94;;;22.22;60.67
51460;BME280;37534;39.772;2.718;2023-02-22T09:21:36;101448.84;;;23.62;55.36
51460;BME280;37534;39.772;2.718;2023-02-22T09:24:02;101461.09;;;24.63;51.83
51460;BME280;37534;39.772;2.718;2023-02-22T09:26:34;101468.03;;;25.35;47.94
51460;BME280;37534;39.772;2.718;2023-02-22T09:29:00;101471.44;;;25.59;46.76
51460;BME280;37534;39.772;2.718;2023-02-22T09:31:25;101449.78;;;25.88;45.80
51460;BME280;37534;39.772;2.718;2023-02-22T09:33:51;101470.00;;;26.55;45.01
51460;BME280;37534;39.772;2.718;2023-02-22T09:36:17;101472.94;;;26.85;44.22
51460;BME280;37534;39.772;2.718;2023-02-22T09:38:45;101481.34;;;27.32;43.55
51460;BME280;37534;39.772;2.718;2023-02-22T09:41:17;101482.59;;;27.90;42.69
51460;BME280;37534;39.772;2.718;2023-02-22T09:46:44;101472.22;;;29.82;39.19
51460;BME280;37534;39.772;2.718;2023-02-22T09:52:28;101483.34;;;28.61;37.29
51460;BME280;37534;39.772;2.718;2023-02-22T09:57:02;101487.56;;;28.64;37.62
51460;BME280;37534;39.772;2.718;2023-02-22T10:02:48;101488.63;;;29.20;37.85
51460;BME280;37534;39.772;2.718;2023-02-22T10:05:33;101489.16;;;28.36;38.58
51460;BME280;37534;39.772;2.718;2023-02-22T10:08:04;101499.09;;;28.43;39.06
51460;BME280;37534;39.772;2.718;2023-02-22T10:10:40;101480.75;;;29.48;36.59
51460;BME280;37534;39.772;2.718;2023-02-22T10:13:25;101484.69;;;29.71;35.74
51460;BME280;37534;39.772;2.718;2023-02-22T10:16:14;101486.28;;;30.47;35.05
51460;BME280;37534;39.772;2.718;2023-02-22T10:22:10;101483.28;;;31.31;33.91
51460;BME280;37534;39.772;2.718;2023-02-22T10:25:04;101479.69;;;31.66;33.37
51460;BME280;37534;39.772;2.718;2023-02-22T10:27:41;101479.03;;;32.15;32.03
51460;BME280;37534;39.772;2.718;2023-02-22T10:30:17;101487.75;;;32.42;31.23
51460;BME280;37534;39.772;2.718;2023-02-22T10:32:47;101487.75;;;32.58;31.08
51460;BME280;37534;39.772;2.718;2023-02-22T10:35:24;101472.09;;;32.80;30.72
51460;BME280;37534;39.772;2.718;2023-02-22T10:37:55;101464.25;;;32.94;30.87
51460;BME280;37534;39.772;2.718;2023-02-22T10:40:24;101476.44;;;33.13;29.25
51460;BME280;37534;39.772;2.718;2023-02-22T10:43:04;101469.63;;;33.50;28.84
51460;BME280;37534;39.772;2.718;2023-02-22T10:45:32;101467.69;;;33.36;29.27
51460;BME280;37534;39.772;2.718;2023-02-22T10:48:04;101452.88;;;33.73;28.82
51460;BME280;37534;39.772;2.718;2023-02-22T10:50:34;101455.53;;;33.73;29.03
51460;BME280;37534;39.772;2.718;2023-02-22T10:53:01;101457.03;;;34.07;28.49
51460;BME280;37534;39.772;2.718;2023-02-22T10:55:28;101444.41;;;34.24;28.79
51460;BME280;37534;39.772;2.718;2023-02-22T10:58:06;101433.00;;;33.99;28.42
51460;BME280;37534;39.772;2.718;2023-02-22T11:00:38;101430.06;;;34.40;28.32
51460;BME280;37534;39.772;2.718;2023-02-22T11:03:19;101436.13;;;34.34;26.71
51460;BME280;37534;39.772;2.718;2023-02-22T11:05:45;101436.38;;;32.48;28.93
51460;BME280;37534;39.772;2.718;2023-02-22T11:10:47;101428.69;;;32.86;30.24
51460;BME280;37534;39.772;2.718;2023-02-22T11:13:29;101429.28;;;32.14;31.22
51460;BME280;37534;39.772;2.718;2023-02-22T11:16:18;101427.84;;;30.64;33.08
51460;BME280;37534;39.772;2.718;2023-02-22T11:18:45;101439.47;;;29.44;34.59
51460;BME280;37534;39.772;2.718;2023-02-22T11:21:12;101439.75;;;28.84;36.52
51460;BME280;37534;39.772;2.718;2023-02-22T11:23:41;101442.25;;;28.75;36.41
51460;BME280;37534;39.772;2.718;2023-02-22T11:26:10;101449.78;;;28.41;38.09
51460;BME280;37534;39.772;2.718;2023-02-22T11:28:43;101445.44;;;28.40;38.16
51460;BME280;37534;39.772;2.718;2023-02-22T11:31:19;101443.97;;;28.57;38.52
51460;BME280;37534;39.772;2.718;2023-02-22T11:34:00;101443.94;;;29.53;37.14
51460;BME280;37534;39.772;2.718;2023-02-22T11:36:40;101439.59;;;30.07;35.93
51460;BME280;37534;39.772;2.718;2023-02-22T11:39:24;101427.66;;;30.83;34.70
51460;BME280;37534;39.772;2.718;2023-02-22T11:41:50;101426.03;;;30.90;33.78
51460;BME280;37534;39.772;2.718;2023-02-22T11:44:30;101432.28;;;30.09;34.62
51460;BME280;37534;39.772;2.718;2023-02-22T11:46:59;101429.75;;;30.54;34.68
51460;BME280;37534;39.772;2.718;2023-02-22T11:49:42;101425.97;;;30.38;33.85
51460;BME280;37534;39.772;2.718;2023-02-22T11:52:20;101419.47;;;30.59;35.21
51460;BME280;37534;39.772;2.718;2023-02-22T11:55:25;101415.50;;;30.27;35.74
51460;BME280;37534;39.772;2.718;2023-02-22T11:58:21;101404.84;;;30.81;34.39
51460;BME280;37534;39.772;2.718;2023-02-22T12:06:50;101379.59;;;29.95;34.74
51460;BME280;37534;39.772;2.718;2023-02-22T12:12:07;101355.34;;;28.19;38.57
51460;BME280;37534;39.772;2.718;2023-02-22T12:20:46;101373.88;;;25.00;44.61
51460;BME280;37534;39.772;2.718;2023-02-22T12:23:42;101368.16;;;23.98;48.06
51460;BME280;37534;39.772;2.718;2023-02-22T12:26:14;101373.38;;;23.24;53.04
51460;BME280;37534;39.772;2.718;2023-02-22T12:29:11;101357.84;;;22.94;56.03
51460;BME280;37534;39.772;2.718;2023-02-22T12:31:44;101351.53;;;23.48;56.08
51460;BME280;37534;39.772;2.718;2023-02-22T12:39:29;101328.00;;;25.80;47.84
51460;BME280;37534;39.772;2.718;2023-02-22T12:41:59;101337.16;;;27.04;45.41
51460;BME280;37534;39.772;2.718;2023-02-22T12:44:34;101338.16;;;26.82;44.82
51460;BME280;37534;39.772;2.718;2023-02-22T12:47:05;101331.19;;;26.39;45.06
51460;BME280;37534;39.772;2.718;2023-02-22T12:49:40;101319.44;;;26.31;45.56
51460;BME280;37534;39.772;2.718;2023-02-22T12:55:00;101323.56;;;26.13;46.23
51460;BME280;37534;39.772;2.718;2023-02-22T13:00:25;101330.81;;;28.07;42.36
51460;BME280;37534;39.772;2.718;2023-02-22T13:14:40;101335.22;;;27.06;42.63
51460;BME280;37534;39.772;2.718;2023-02-22T13:22:44;101322.50;;;27.30;43.81
51460;BME280;37534;39.772;2.718;2023-02-22T13:28:01;101316.09;;;28.61;40.98
51460;BME280;37534;39.772;2.718;2023-02-22T13:30:39;101309.31;;;29.24;39.70
51460;BME280;37534;39.772;2.718;2023-02-22T13:33:12;101304.66;;;30.00;38.14
51460;BME280;37534;39.772;2.718;2023-02-22T13:49:26;101286.88;;;25.87;44.61
51460;BME280;37534;39.772;2.718;2023-02-22T13:52:00;101287.34;;;24.92;48.34
51460;BME280;37534;39.772;2.718;2023-02-22T13:54:42;101277.88;;;25.01;49.21
51460;BME280;37534;39.772;2.718;2023-02-22T13:57:28;101277.66;;;25.27;49.83
51460;BME280;37534;39.772;2.718;2023-02-22T14:03:33;101277.19;;;26.62;45.89
51460;BME280;37534;39.772;2.718;2023-02-22T14:05:53;101270.13;;;27.03;44.22
51460;BME280;37534;39.772;2.718;2023-02-22T14:10:54;101270.19;;;28.12;42.35
51460;BME280;37534;39.772;2.718;2023-02-22T14:13:28;101269.50;;;27.91;42.13
51460;BME280;37534;39.772;2.718;2023-02-22T14:18:23;101277.44;;;28.10;41.25
51460;BME280;37534;39.772;2.718;2023-02-22T14:21:12;101283.31;;;28.23;40.64
51460;BME280;37534;39.772;2.718;2023-02-22T14:23:49;101273.13;;;28.29;40.91
51460;BME280;37534;39.772;2.718;2023-02-22T14:26:33;101288.47;;;28.15;41.21
51460;BME280;37534;39.772;2.718;2023-02-22T14:31:59;101292.69;;;27.98;41.07
51460;BME280;37534;39.772;2.718;2023-02-22T14:34:46;101282.19;;;27.77;41.64
51460;BME280;37534;39.772;2.718;2023-02-22T14:37:15;101284.16;;;28.14;41.30
51460;BME280;37534;39.772;2.718;2023-02-22T14:40:38;101277.44;;;28.10;40.88
51460;BME280;37534;39.772;2.718;2023-02-22T14:42:47;101274.66;;;27.82;40.54
51460;BME280;37534;39.772;2.718;2023-02-22T14:45:32;101266.38;;;27.06;42.32
51460;BME280;37534;39.772;2.718;2023-02-22T14:50:51;101274.06;;;26.36;44.10
51460;BME280;37534;39.772;2.718;2023-02-22T14:53:35;101259.66;;;25.75;46.32
51460;BME280;37534;39.772;2.718;2023-02-22T14:56:27;101265.41;;;25.14;48.78
51460;BME280;37534;39.772;2.718;2023-02-22T14:59:14;101265.13;;;25.17;49.65
51460;BME280;37534;39.772;2.718;2023-02-22T15:01:41;101259.56;;;25.66;47.77
51460;BME280;37534;39.772;2.718;2023-02-22T15:04:27;101271.81;;;26.31;46.03
51460;BME280;37534;39.772;2.718;2023-02-22T15:06:56;101273.66;;;25.98;46.39
51460;BME280;37534;39.772;2.718;2023-02-22T15:09:27;101273.53;;;26.00;46.48
51460;BME280;37534;39.772;2.718;2023-02-22T15:14:33;101279.53;;;25.47;48.15